sensor_id;sensor_type;location;lat;lon;timestamp;P1;durP1;ratioP1;P2;durP2;ratioP2
23117;SDS011;11728;50.624;6.014;2022-09-09T00:00:48;2.58;;;0.65;;
23117;SDS011;11728;50.624;6.014;2022-09-09T00:17:00;2.47;;;0.80;;
23117;SDS011;11728;50.624;6.014;2022-09-09T00:22:15;4.82;;;0.70;;
23117;SDS011;11728;50.624;6.014;2022-09-09T00:27:23;2.17;;;0.70;;
23117;SDS011;11728;50.624;6.014;2022-09-09T00:32:30;5.97;;;1.33;;
23117;SDS011;11728;50.624;6.014;2022-09-09T00:37:32;2.80;;;0.80;;
23117;SDS011;11728;50.624;6.014;2022-09-09T00:58:02;3.72;;;1.20;;
23117;SDS011;11728;50.624;6.014;2022-09-09T01:13:43;4.60;;;1.25;;
23117;SDS011;11728;50.624;6.014;2022-09-09T01:18:49;8.70;;;1.60;;
23117;SDS011;11728;50.624;6.014;2022-09-09T01:24:16;5.43;;;1.27;;
23117;SDS011;11728;50.624;6.014;2022-09-09T01:29:30;6.75;;;1.30;;
23117;SDS011;11728;50.624;6.014;2022-09-09T01:34:31;8.10;;;1.88;;
23117;SDS011;11728;50.624;6.014;2022-09-09T01:39:37;7.18;;;1.42;;
23117;SDS011;11728;50.624;6.014;2022-09-09T01:44:43;7.30;;;1.55;;
23117;SDS011;11728;50.624;6.014;2022-09-09T01:49:44;7.70;;;1.60;;
23117;SDS011;11728;50.624;6.014;2022-09-09T01:54:53;6.07;;;1.52;;
23117;SDS011;11728;50.624;6.014;2022-09-09T02:00:05;6.88;;;1.27;;
23117;SDS011;11728;50.624;6.014;2022-09-09T02:10:56;6.13;;;1.50;;
23117;SDS011;11728;50.624;6.014;2022-09-09T02:21:12;6.45;;;1.25;;
23117;SDS011;11728;50.624;6.014;2022-09-09T02:26:14;11.10;;;1.92;;
23117;SDS011;11728;50.624;6.014;2022-09-09T02:31:23;6.00;;;1.50;;
23117;SDS011;11728;50.624;6.014;2022-09-09T02:36:32;6.95;;;1.77;;
23117;SDS011;11728;50.624;6.014;2022-09-09T02:41:37;8.20;;;1.67;;
23117;SDS011;11728;50.624;6.014;2022-09-09T02:52:07;7.28;;;1.55;;
23117;SDS011;11728;50.624;6.014;2022-09-09T03:02:20;6.97;;;1.30;;
23117;SDS011;11728;50.624;6.014;2022-09-09T03:07:26;6.63;;;1.38;;
23117;SDS011;11728;50.624;6.014;2022-09-09T03:12:29;7.97;;;1.60;;
23117;SDS011;11728;50.624;6.014;2022-09-09T03:17:29;6.78;;;1.70;;
23117;SDS011;11728;50.624;6.014;2022-09-09T03:22:31;9.65;;;2.10;;
23117;SDS011;11728;50.624;6.014;2022-09-09T03:27:34;7.85;;;1.77;;
23117;SDS011;11728;50.624;6.014;2022-09-09T03:32:35;8.90;;;1.60;;
23117;SDS011;11728;50.624;6.014;2022-09-09T03:37:35;9.73;;;2.00;;
23117;SDS011;11728;50.624;6.014;2022-09-09T03:42:36;7.22;;;1.50;;
23117;SDS011;11728;50.624;6.014;2022-09-09T03:47:38;5.75;;;1.60;;
23117;SDS011;11728;50.624;6.014;2022-09-09T03:52:40;6.68;;;1.50;;
23117;SDS011;11728;50.624;6.014;2022-09-09T03:57:48;6.10;;;1.40;;
23117;SDS011;11728;50.624;6.014;2022-09-09T04:02:50;7.28;;;1.70;;
23117;SDS011;11728;50.624;6.014;2022-09-09T04:07:54;7.00;;;1.35;;
23117;SDS011;11728;50.624;6.014;2022-09-09T04:12:55;7.03;;;1.50;;
23117;SDS011;11728;50.624;6.014;2022-09-09T04:17:56;5.18;;;1.25;;
23117;SDS011;11728;50.624;6.014;2022-09-09T04:22:57;6.85;;;1.30;;
23117;SDS011;11728;50.624;6.014;2022-09-09T04:27:57;6.78;;;1.50;;
23117;SDS011;11728;50.624;6.014;2022-09-09T04:32:58;6.53;;;1.20;;
23117;SDS011;11728;50.624;6.014;2022-09-09T04:37:59;9.63;;;1.58;;
23117;SDS011;11728;50.624;6.014;2022-09-09T04:43:02;7.47;;;1.42;;
23117;SDS011;11728;50.624;6.014;2022-09-09T04:48:05;7.05;;;1.40;;
23117;SDS011;11728;50.624;6.014;2022-09-09T04:53:07;6.22;;;0.98;;
23117;SDS011;11728;50.624;6.014;2022-09-09T04:58:10;6.78;;;1.42;;
23117;SDS011;11728;50.624;6.014;2022-09-09T05:03:11;6.10;;;1.15;;
23117;SDS011;11728;50.624;6.014;2022-09-09T05:08:13;10.10;;;1.90;;
23117;SDS011;11728;50.624;6.014;2022-09-09T05:13:13;7.63;;;1.40;;
23117;SDS011;11728;50.624;6.014;2022-09-09T05:18:14;5.85;;;1.40;;
23117;SDS011;11728;50.624;6.014;2022-09-09T05:23:14;7.10;;;1.02;;
23117;SDS011;11728;50.624;6.014;2022-09-09T05:28:15;6.20;;;1.15;;
23117;SDS011;11728;50.624;6.014;2022-09-09T05:33:15;10.10;;;1.80;;
23117;SDS011;11728;50.624;6.014;2022-09-09T05:38:16;10.07;;;1.65;;
23117;SDS011;11728;50.624;6.014;2022-09-09T05:43:19;7.35;;;1.45;;
23117;SDS011;11728;50.624;6.014;2022-09-09T05:48:20;9.10;;;1.60;;
23117;SDS011;11728;50.624;6.014;2022-09-09T05:53:21;10.77;;;1.27;;
23117;SDS011;11728;50.624;6.014;2022-09-09T05:58:22;4.60;;;1.10;;
23117;SDS011;11728;50.624;6.014;2022-09-09T06:03:24;8.50;;;1.38;;
23117;SDS011;11728;50.624;6.014;2022-09-09T06:08:26;7.10;;;1.33;;
23117;SDS011;11728;50.624;6.014;2022-09-09T06:13:27;7.72;;;1.35;;
23117;SDS011;11728;50.624;6.014;2022-09-09T06:18:28;6.75;;;1.25;;
23117;SDS011;11728;50.624;6.014;2022-09-09T06:23:30;5.35;;;1.50;;
23117;SDS011;11728;50.624;6.014;2022-09-09T06:28:32;9.45;;;1.67;;
23117;SDS011;11728;50.624;6.014;2022-09-09T06:33:35;6.28;;;1.55;;
23117;SDS011;11728;50.624;6.014;2022-09-09T06:38:40;8.25;;;1.67;;
23117;SDS011;11728;50.624;6.014;2022-09-09T06:43:43;7.15;;;1.50;;
23117;SDS011;11728;50.624;6.014;2022-09-09T06:48:46;5.60;;;1.50;;
23117;SDS011;11728;50.624;6.014;2022-09-09T06:53:53;8.48;;;1.50;;
23117;SDS011;11728;50.624;6.014;2022-09-09T06:58:56;6.97;;;1.60;;
23117;SDS011;11728;50.624;6.014;2022-09-09T07:04:02;5.35;;;1.40;;
23117;SDS011;11728;50.624;6.014;2022-09-09T07:09:08;7.15;;;1.40;;
23117;SDS011;11728;50.624;6.014;2022-09-09T07:14:12;8.63;;;1.65;;
23117;SDS011;11728;50.624;6.014;2022-09-09T07:19:14;7.88;;;1.50;;
23117;SDS011;11728;50.624;6.014;2022-09-09T07:24:16;9.75;;;1.73;;
23117;SDS011;11728;50.624;6.014;2022-09-09T07:29:18;4.30;;;1.17;;
23117;SDS011;11728;50.624;6.014;2022-09-09T07:34:18;5.97;;;1.38;;
23117;SDS011;11728;50.624;6.014;2022-09-09T07:39:19;6.28;;;1.30;;
23117;SDS011;11728;50.624;6.014;2022-09-09T07:44:24;7.25;;;1.42;;
23117;SDS011;11728;50.624;6.014;2022-09-09T07:49:32;7.87;;;1.20;;
23117;SDS011;11728;50.624;6.014;2022-09-09T07:54:33;6.68;;;1.20;;
23117;SDS011;11728;50.624;6.014;2022-09-09T07:59:36;5.72;;;1.23;;
23117;SDS011;11728;50.624;6.014;2022-09-09T08:04:38;6.22;;;1.10;;
23117;SDS011;11728;50.624;6.014;2022-09-09T08:09:39;3.85;;;0.95;;
23117;SDS011;11728;50.624;6.014;2022-09-09T08:14:49;7.38;;;1.35;;
23117;SDS011;11728;50.624;6.014;2022-09-09T08:19:50;5.97;;;1.38;;
23117;SDS011;11728;50.624;6.014;2022-09-09T08:24:55;6.55;;;1.05;;
23117;SDS011;11728;50.624;6.014;2022-09-09T08:29:57;5.60;;;1.13;;
23117;SDS011;11728;50.624;6.014;2022-09-09T08:34:57;3.88;;;1.08;;
23117;SDS011;11728;50.624;6.014;2022-09-09T08:39:58;5.35;;;1.15;;
23117;SDS011;11728;50.624;6.014;2022-09-09T08:55:45;4.45;;;1.05;;
23117;SDS011;11728;50.624;6.014;2022-09-09T09:11:20;4.45;;;1.20;;
23117;SDS011;11728;50.624;6.014;2022-09-09T09:16:23;5.60;;;0.77;;
23117;SDS011;11728;50.624;6.014;2022-09-09T09:21:42;4.45;;;1.05;;
23117;SDS011;11728;50.624;6.014;2022-09-09T09:26:46;3.65;;;0.77;;
23117;SDS011;11728;50.624;6.014;2022-09-09T09:31:55;4.05;;;0.73;;
23117;SDS011;11728;50.624;6.014;2022-09-09T09:37:00;3.08;;;0.82;;
23117;SDS011;11728;50.624;6.014;2022-09-09T09:42:08;3.88;;;0.80;;
23117;SDS011;11728;50.624;6.014;2022-09-09T09:47:18;4.63;;;1.20;;
23117;SDS011;11728;50.624;6.014;2022-09-09T09:52:33;4.20;;;1.20;;
23117;SDS011;11728;50.624;6.014;2022-09-09T09:57:36;4.72;;;0.90;;
23117;SDS011;11728;50.624;6.014;2022-09-09T10:02:42;4.30;;;0.75;;
23117;SDS011;11728;50.624;6.014;2022-09-09T10:08:01;7.30;;;1.13;;
23117;SDS011;11728;50.624;6.014;2022-09-09T10:13:09;7.28;;;1.20;;
23117;SDS011;11728;50.624;6.014;2022-09-09T10:18:22;4.50;;;1.25;;
23117;SDS011;11728;50.624;6.014;2022-09-09T10:29:06;7.25;;;1.42;;
23117;SDS011;11728;50.624;6.014;2022-09-09T10:40:00;4.30;;;0.80;;
23117;SDS011;11728;50.624;6.014;2022-09-09T10:55:48;6.00;;;1.40;;
23117;SDS011;11728;50.624;6.014;2022-09-09T11:01:13;6.10;;;1.20;;
23117;SDS011;11728;50.624;6.014;2022-09-09T11:06:19;5.10;;;1.20;;
23117;SDS011;11728;50.624;6.014;2022-09-09T11:11:29;4.05;;;1.02;;
23117;SDS011;11728;50.624;6.014;2022-09-09T11:21:46;6.47;;;1.52;;
23117;SDS011;11728;50.624;6.014;2022-09-09T11:26:54;6.80;;;1.23;;
23117;SDS011;11728;50.624;6.014;2022-09-09T11:37:38;4.22;;;1.25;;
23117;SDS011;11728;50.624;6.014;2022-09-09T11:43:01;4.18;;;1.13;;
23117;SDS011;11728;50.624;6.014;2022-09-09T11:48:04;3.65;;;1.20;;
23117;SDS011;11728;50.624;6.014;2022-09-09T12:08:45;8.07;;;1.08;;
23117;SDS011;11728;50.624;6.014;2022-09-09T12:13:55;4.28;;;1.00;;
23117;SDS011;11728;50.624;6.014;2022-09-09T12:19:05;4.45;;;1.10;;
23117;SDS011;11728;50.624;6.014;2022-09-09T12:35:24;3.67;;;1.08;;
23117;SDS011;11728;50.624;6.014;2022-09-09T12:40:29;3.67;;;1.00;;
23117;SDS011;11728;50.624;6.014;2022-09-09T12:45:32;5.40;;;0.75;;
23117;SDS011;11728;50.624;6.014;2022-09-09T12:50:37;5.28;;;0.90;;
23117;SDS011;11728;50.624;6.014;2022-09-09T12:55:51;3.42;;;1.00;;
23117;SDS011;11728;50.624;6.014;2022-09-09T13:00:56;3.47;;;0.75;;
23117;SDS011;11728;50.624;6.014;2022-09-09T13:05:58;7.25;;;1.40;;
23117;SDS011;11728;50.624;6.014;2022-09-09T13:11:14;2.95;;;0.70;;
23117;SDS011;11728;50.624;6.014;2022-09-09T13:16:25;3.67;;;1.10;;
23117;SDS011;11728;50.624;6.014;2022-09-09T13:21:32;4.65;;;1.00;;
23117;SDS011;11728;50.624;6.014;2022-09-09T13:26:34;5.95;;;1.20;;
23117;SDS011;11728;50.624;6.014;2022-09-09T13:31:36;3.35;;;0.93;;
23117;SDS011;11728;50.624;6.014;2022-09-09T13:36:37;4.13;;;1.10;;
23117;SDS011;11728;50.624;6.014;2022-09-09T13:41:44;2.80;;;0.90;;
23117;SDS011;11728;50.624;6.014;2022-09-09T13:46:46;5.07;;;1.05;;
23117;SDS011;11728;50.624;6.014;2022-09-09T13:51:47;6.43;;;1.00;;
23117;SDS011;11728;50.624;6.014;2022-09-09T13:56:50;2.45;;;0.80;;
23117;SDS011;11728;50.624;6.014;2022-09-09T14:01:51;3.33;;;0.80;;
23117;SDS011;11728;50.624;6.014;2022-09-09T14:06:52;6.35;;;1.40;;
23117;SDS011;11728;50.624;6.014;2022-09-09T14:11:53;4.68;;;0.98;;
23117;SDS011;11728;50.624;6.014;2022-09-09T14:16:55;5.20;;;1.23;;
23117;SDS011;11728;50.624;6.014;2022-09-09T14:21:55;3.47;;;1.02;;
23117;SDS011;11728;50.624;6.014;2022-09-09T14:26:56;4.85;;;1.30;;
23117;SDS011;11728;50.624;6.014;2022-09-09T14:31:57;6.00;;;1.10;;
23117;SDS011;11728;50.624;6.014;2022-09-09T14:36:57;5.70;;;1.00;;
23117;SDS011;11728;50.624;6.014;2022-09-09T14:41:58;3.40;;;0.98;;
23117;SDS011;11728;50.624;6.014;2022-09-09T14:46:59;4.50;;;1.02;;
23117;SDS011;11728;50.624;6.014;2022-09-09T14:51:59;4.13;;;1.23;;
23117;SDS011;11728;50.624;6.014;2022-09-09T14:57:01;5.35;;;1.23;;
23117;SDS011;11728;50.624;6.014;2022-09-09T15:02:02;4.30;;;1.17;;
23117;SDS011;11728;50.624;6.014;2022-09-09T15:07:04;6.63;;;1.33;;
23117;SDS011;11728;50.624;6.014;2022-09-09T15:12:04;6.40;;;1.30;;
23117;SDS011;11728;50.624;6.014;2022-09-09T15:17:05;4.22;;;1.30;;
23117;SDS011;11728;50.624;6.014;2022-09-09T15:22:05;4.60;;;1.58;;
23117;SDS011;11728;50.624;6.014;2022-09-09T15:27:06;3.80;;;1.17;;
23117;SDS011;11728;50.624;6.014;2022-09-09T15:32:07;3.25;;;0.90;;
23117;SDS011;11728;50.624;6.014;2022-09-09T15:37:09;4.60;;;1.10;;
23117;SDS011;11728;50.624;6.014;2022-09-09T15:42:13;2.88;;;0.85;;
23117;SDS011;11728;50.624;6.014;2022-09-09T15:47:13;3.50;;;0.80;;
23117;SDS011;11728;50.624;6.014;2022-09-09T15:52:14;3.72;;;0.85;;
23117;SDS011;11728;50.624;6.014;2022-09-09T15:57:14;3.97;;;0.80;;
23117;SDS011;11728;50.624;6.014;2022-09-09T16:02:15;4.10;;;1.00;;
23117;SDS011;11728;50.624;6.014;2022-09-09T16:07:15;5.30;;;0.90;;
23117;SDS011;11728;50.624;6.014;2022-09-09T16:12:16;3.63;;;1.00;;
23117;SDS011;11728;50.624;6.014;2022-09-09T16:17:16;4.15;;;1.02;;
23117;SDS011;11728;50.624;6.014;2022-09-09T16:22:19;4.05;;;1.10;;
23117;SDS011;11728;50.624;6.014;2022-09-09T16:27:20;5.28;;;0.75;;
23117;SDS011;11728;50.624;6.014;2022-09-09T16:32:20;5.13;;;1.20;;
23117;SDS011;11728;50.624;6.014;2022-09-09T16:37:20;2.78;;;0.90;;
23117;SDS011;11728;50.624;6.014;2022-09-09T16:42:21;2.42;;;0.98;;
23117;SDS011;11728;50.624;6.014;2022-09-09T16:47:21;4.97;;;1.40;;
23117;SDS011;11728;50.624;6.014;2022-09-09T16:52:22;4.03;;;1.00;;
23117;SDS011;11728;50.624;6.014;2022-09-09T16:57:22;5.45;;;1.20;;
23117;SDS011;11728;50.624;6.014;2022-09-09T17:02:23;5.47;;;1.20;;
23117;SDS011;11728;50.624;6.014;2022-09-09T17:07:24;4.32;;;0.82;;
23117;SDS011;11728;50.624;6.014;2022-09-09T17:12:25;2.50;;;0.90;;
23117;SDS011;11728;50.624;6.014;2022-09-09T17:17:25;3.20;;;0.80;;
23117;SDS011;11728;50.624;6.014;2022-09-09T17:22:26;3.88;;;1.00;;
23117;SDS011;11728;50.624;6.014;2022-09-09T17:27:27;3.65;;;1.30;;
23117;SDS011;11728;50.624;6.014;2022-09-09T17:32:27;3.47;;;0.88;;
23117;SDS011;11728;50.624;6.014;2022-09-09T17:37:28;3.67;;;1.00;;
23117;SDS011;11728;50.624;6.014;2022-09-09T17:42:29;4.85;;;1.00;;
23117;SDS011;11728;50.624;6.014;2022-09-09T17:47:30;3.85;;;1.08;;
23117;SDS011;11728;50.624;6.014;2022-09-09T17:52:31;2.92;;;0.90;;
23117;SDS011;11728;50.624;6.014;2022-09-09T17:57:31;3.42;;;0.90;;
23117;SDS011;11728;50.624;6.014;2022-09-09T18:02:32;4.45;;;1.30;;
23117;SDS011;11728;50.624;6.014;2022-09-09T18:07:32;3.25;;;0.98;;
23117;SDS011;11728;50.624;6.014;2022-09-09T18:12:33;5.32;;;1.02;;
23117;SDS011;11728;50.624;6.014;2022-09-09T18:17:33;4.68;;;1.05;;
23117;SDS011;11728;50.624;6.014;2022-09-09T18:22:34;6.03;;;1.00;;
23117;SDS011;11728;50.624;6.014;2022-09-09T18:27:35;5.05;;;1.20;;
23117;SDS011;11728;50.624;6.014;2022-09-09T18:32:35;4.25;;;1.02;;
23117;SDS011;11728;50.624;6.014;2022-09-09T18:37:36;2.53;;;0.98;;
23117;SDS011;11728;50.624;6.014;2022-09-09T18:42:37;5.57;;;1.27;;
23117;SDS011;11728;50.624;6.014;2022-09-09T18:47:37;4.10;;;1.17;;
23117;SDS011;11728;50.624;6.014;2022-09-09T18:52:38;4.80;;;1.30;;
23117;SDS011;11728;50.624;6.014;2022-09-09T18:57:39;5.38;;;1.20;;
23117;SDS011;11728;50.624;6.014;2022-09-09T19:02:40;4.30;;;1.23;;
23117;SDS011;11728;50.624;6.014;2022-09-09T19:07:40;8.82;;;1.80;;
23117;SDS011;11728;50.624;6.014;2022-09-09T19:12:41;6.63;;;1.33;;
23117;SDS011;11728;50.624;6.014;2022-09-09T19:17:41;4.05;;;1.10;;
23117;SDS011;11728;50.624;6.014;2022-09-09T19:22:42;3.25;;;1.17;;
23117;SDS011;11728;50.624;6.014;2022-09-09T19:27:42;5.18;;;1.35;;
23117;SDS011;11728;50.624;6.014;2022-09-09T19:32:43;4.85;;;1.08;;
23117;SDS011;11728;50.624;6.014;2022-09-09T19:37:43;6.38;;;1.60;;
23117;SDS011;11728;50.624;6.014;2022-09-09T19:42:44;3.60;;;1.23;;
23117;SDS011;11728;50.624;6.014;2022-09-09T19:47:45;5.15;;;1.38;;
23117;SDS011;11728;50.624;6.014;2022-09-09T19:52:45;6.47;;;1.63;;
23117;SDS011;11728;50.624;6.014;2022-09-09T19:57:46;5.68;;;1.30;;
23117;SDS011;11728;50.624;6.014;2022-09-09T20:02:46;5.35;;;1.63;;
23117;SDS011;11728;50.624;6.014;2022-09-09T20:07:49;3.85;;;1.10;;
23117;SDS011;11728;50.624;6.014;2022-09-09T20:12:50;5.63;;;1.40;;
23117;SDS011;11728;50.624;6.014;2022-09-09T20:17:51;5.50;;;1.30;;
23117;SDS011;11728;50.624;6.014;2022-09-09T20:22:52;2.72;;;1.20;;
23117;SDS011;11728;50.624;6.014;2022-09-09T20:27:52;5.38;;;1.30;;
23117;SDS011;11728;50.624;6.014;2022-09-09T20:32:53;4.63;;;1.30;;
23117;SDS011;11728;50.624;6.014;2022-09-09T20:37:53;5.85;;;1.13;;
23117;SDS011;11728;50.624;6.014;2022-09-09T20:42:54;3.78;;;1.25;;
23117;SDS011;11728;50.624;6.014;2022-09-09T20:47:54;5.40;;;1.20;;
23117;SDS011;11728;50.624;6.014;2022-09-09T20:52:56;4.93;;;1.30;;
23117;SDS011;11728;50.624;6.014;2022-09-09T20:57:57;3.65;;;1.10;;
23117;SDS011;11728;50.624;6.014;2022-09-09T21:02:57;4.70;;;1.58;;
23117;SDS011;11728;50.624;6.014;2022-09-09T21:07:59;5.97;;;1.67;;
23117;SDS011;11728;50.624;6.014;2022-09-09T21:13:00;6.65;;;1.63;;
23117;SDS011;11728;50.624;6.014;2022-09-09T21:18:00;3.88;;;1.40;;
23117;SDS011;11728;50.624;6.014;2022-09-09T21:23:01;4.10;;;1.45;;
23117;SDS011;11728;50.624;6.014;2022-09-09T21:28:02;2.60;;;1.02;;
23117;SDS011;11728;50.624;6.014;2022-09-09T21:33:04;6.63;;;1.27;;
23117;SDS011;11728;50.624;6.014;2022-09-09T21:38:12;4.05;;;1.27;;
23117;SDS011;11728;50.624;6.014;2022-09-09T21:43:20;3.63;;;1.27;;
23117;SDS011;11728;50.624;6.014;2022-09-09T21:48:22;3.78;;;0.90;;
23117;SDS011;11728;50.624;6.014;2022-09-09T21:53:25;5.10;;;0.80;;
23117;SDS011;11728;50.624;6.014;2022-09-09T21:58:25;3.90;;;1.13;;
23117;SDS011;11728;50.624;6.014;2022-09-09T22:03:26;3.20;;;0.70;;
23117;SDS011;11728;50.624;6.014;2022-09-09T22:08:26;4.50;;;1.02;;
23117;SDS011;11728;50.624;6.014;2022-09-09T22:13:28;3.80;;;0.70;;
23117;SDS011;11728;50.624;6.014;2022-09-09T22:18:29;3.67;;;0.70;;
23117;SDS011;11728;50.624;6.014;2022-09-09T22:23:31;2.80;;;0.73;;
23117;SDS011;11728;50.624;6.014;2022-09-09T22:28:32;1.95;;;0.70;;
23117;SDS011;11728;50.624;6.014;2022-09-09T22:33:33;4.13;;;0.82;;
23117;SDS011;11728;50.624;6.014;2022-09-09T22:38:35;3.78;;;0.77;;
23117;SDS011;11728;50.624;6.014;2022-09-09T22:43:35;2.50;;;0.85;;
23117;SDS011;11728;50.624;6.014;2022-09-09T22:48:36;1.88;;;0.60;;
23117;SDS011;11728;50.624;6.014;2022-09-09T22:53:38;3.70;;;0.90;;
23117;SDS011;11728;50.624;6.014;2022-09-09T22:58:39;3.45;;;0.93;;
23117;SDS011;11728;50.624;6.014;2022-09-09T23:03:40;4.47;;;1.08;;
23117;SDS011;11728;50.624;6.014;2022-09-09T23:08:44;3.20;;;1.00;;
23117;SDS011;11728;50.624;6.014;2022-09-09T23:13:47;5.55;;;1.10;;
23117;SDS011;11728;50.624;6.014;2022-09-09T23:18:51;3.65;;;0.95;;
23117;SDS011;11728;50.624;6.014;2022-09-09T23:23:54;2.78;;;0.68;;
23117;SDS011;11728;50.624;6.014;2022-09-09T23:28:57;4.10;;;0.85;;
23117;SDS011;11728;50.624;6.014;2022-09-09T23:33:59;2.92;;;0.73;;
23117;SDS011;11728;50.624;6.014;2022-09-09T23:39:01;2.45;;;0.63;;
23117;SDS011;11728;50.624;6.014;2022-09-09T23:44:03;3.92;;;0.80;;
23117;SDS011;11728;50.624;6.014;2022-09-09T23:49:04;4.35;;;1.15;;
23117;SDS011;11728;50.624;6.014;2022-09-09T23:54:07;3.58;;;0.85;;
23117;SDS011;11728;50.624;6.014;2022-09-09T23:59:09;5.25;;;1.10;;
